Mumbai, India

2:32 PM IST on June 30, 2015 (GMT +0530)
Chhatrapati Shivaji International | | Change Station
CLOSE
Current Station
Airport
Location: Mumbai,
Elevation: 46 ft
Nearby Weather Stations

Elev 46 ft 19.10 °N, 72.86 °E | Updated 2 hours ago

Haze
Haze
84 °F
Feels Like 98 °F
N
6
Wind Variable Wind from WNW

Today
High -- | Low -- °F
--% Chance of Precip.
Yesterday
High -- | Low -- °F
Precip. -- in
6:04 AM 7:20 PM
Waxing Gibbous, 96% visible
Pressure 29.80 in
Visibility 1.6 miles
Clouds Few 1200 ft
Scattered Clouds 1800 ft
Mostly Cloudy 9000 ft
Heat Index 98 °F
Dew Point 81 °F
Humidity 89%
Rainfall 0.00 in
Snow Depth Not available.
UV 9 out of 12
Pollen Not available.
Air Quality Not available.
Flu Activity Not available.
METAR VABB 300610Z 29005KT 2500 HZ FEW012 SCT018 BKN090 29/27 Q1009 NOSIG

More Conditions Fewer Conditions

Pressure 29.80 in
Visibility 1.6 miles
Clouds Few 1200 ft
Scattered Clouds 1800 ft
Mostly Cloudy 9000 ft
Heat Index 98 °F
Dew Point 81 °F
Humidity 89%
Rainfall 0.00 in
Snow Depth Not available.
UV 9 out of 12
Pollen Not available.
Air Quality Not available.
Flu Activity Not available.
METAR VABB 300610Z 29005KT 2500 HZ FEW012 SCT018 BKN090 29/27 Q1009 NOSIG

More Conditions Fewer Conditions

10-Day Weather Forecast

×

Almanac

Astronomy

Jun. 30, 2015 Rise Set
Actual Time
Civil Twilight
Nautical Twilight
Astronomical Twilight
Moon
Length of Visible Light
Length of Day
Tomorrow will be .
, % of the Moon is Illuminated

Today's Extremes

Country Highs Country Lows

Community

WunderPhotos

Upload Photos

1,833,983 photos uploaded!

WunderBlogs® & News

Nearby

Air Quality

  Air Quality AQ Index Pollutant
Not available.

Snow Depth

Station Depth Elevation

Earthquake Activity

City Distance Mag. Time & Date
Minimum magnitude displayed is 2.5.

Coastal Water Temperatures

Place Temperature

Stations

Nearby Weather Stations

Station Location Temp. Windchill Dew Point Humidity Wind Precip. Elev Updated Type